Filters

Air Compressor Import to India

Connect2India provides real time data for Air Compressor import, historical Air Compressor import analysis, current demand in overseas countries and import price of Air Compressor.

Air Compressor

Air Compressor import data

Date HS Code Product Description Origin Port Destination Port Quantity Value (INR in Million) Unit Per Unit (INR)
2016-09-17 84149090 SPARE PARTS FOR AIR COMPRESSOR (1 CTN) CHINA Tughlakabad 15 0.0053 KGS 355.0
2016-09-17 84212900 AIR FILTER 1613740800 (COMPRESSOR SPARE PARTS) BELGIUM Nhava Sheva Sea 66 0.2142 NOS 3244.0
2016-09-17 84212900 AIR FILTER ELEM 2914502900 (COMPRESSOR SPARE PARTS) BELGIUM Nhava Sheva Sea 36 0.1131 NOS 3141.0
2016-09-17 84212900 AIR/OIL FILTER 2901200650 (COMPRESSOR SPARE PARTS) BELGIUM Nhava Sheva Sea 13 0.092 NOS 7079.0
2016-09-17 84212900 FILTER AIR 1635040880 (COMPRESSOR SPARE PARTS) BELGIUM Nhava Sheva Sea 6 0.0384 NOS 6406.0
2016-09-17 84212900 FILTER AIR 1635050180 (COMPRESSOR SPARE PARTS) BELGIUM Nhava Sheva Sea 3 0.0265 NOS 8834.0
2016-09-17 84213100 59031060 SEPARATOR ELEMENT WITH O RING (SPARE PARTS FOR HITACHI AIR COMPRESSOR) JAPAN Delhi Air Cargo 2 0.0408 PCS 20378.0
2016-09-17 84213100 59031070 SEPARATOR ELEMENT WITH O RING (SPARE PARTS FOR HITACHI AIR COMPRESSOR) JAPAN Delhi Air Cargo 1 0.0254 PCS 25358.0
2016-09-17 84213100 59031080 OIL SEPARATOR ELEMENT (SPARE PARTS FOR HITACHI AIR COMPRESSOR) JAPAN Delhi Air Cargo 1 0.0243 PCS 24330.0
2016-09-17 84213100 59031150 SUCTION FILTER ELEMENT (SPARE PARTS FOR HITACHI AIR COMPRESSOR) JAPAN Delhi Air Cargo 1 0.0091 PCS 9057.0
2016-09-17 84213100 59031170 AIR INTAKE FILTER ELEMENT (SPARE PARTS FOR HITACHI AIR COMPRESSOR) JAPAN Delhi Air Cargo 1 0.0066 PCS 6626.0
2016-09-17 84213100 59031210 OIL FILTER ELEMENT (SPARE PARTS FOR HITACHI AIR COMPRESSOR) JAPAN Delhi Air Cargo 1 0.0044 PCS 4418.0
2016-09-17 84213100 59031220 OIL FILTER ELEMENT (SPARE PARTS FOR HITACHI AIR COMPRESSOR) JAPAN Delhi Air Cargo 1 0.0049 PCS 4863.0
2016-09-17 83089019 LIFTING HOOK (PARTS OF AIR CONDITIONER COMPRESSORS (FOR CAPTIVE CONSUMPTION) CHINA Bombay Air Cargo 320 0.1024 PCS 320.0
2016-09-17 84141000 AIR COMPRESSOR FOR AIR FILLING (GC-25) (TANK-25L,ORANGE) CHINA Tughlakabad 30 0.0427 PCS 1422.0
2016-09-17 84141000 AIR COMPRESSOR FOR AIR FILLING (GC-50) (TANK-50L,ORANGE) CHINA Tughlakabad 40 0.0768 PCS 1920.0
2016-09-17 84141000 AIR COMPRESSOR FOR AIR FILLING (OF550-35L) (TANK-35L,WHITE) CHINA Tughlakabad 50 0.1067 PCS 2134.0
2016-09-17 84141000 AIR COMPRESSOR FOR AIR FILLING (XL-8L) (TANK-8L,ORANGE) CHINA Tughlakabad 50 0.064 PCS 1280.0
2016-09-17 84141000 AIR COMPRESSOR FOR AIR FILLING (XLBM-24L) (TANK-24L,BLACK) CHINA Tughlakabad 50 0.0729 PCS 1458.0
2016-09-17 84141000 AIR COMPRESSOR FOR AIR FILLING (XLBM-24L) (TANK-24L,GREEN) CHINA Tughlakabad 50 0.0729 PCS 1458.0
2016-09-17 84141000 AIR COMPRESSOR FOR AIR FILLING (XLBM-50L) (TANK-50L,BLACK) CHINA Tughlakabad 50 0.0747 PCS 1494.0
2016-09-17 84141000 AIR COMPRESSOR FOR AIR FILLING (XLBM-50L) (TANK-50L,GREEN) CHINA Tughlakabad 50 0.0747 PCS 1494.0
2016-09-17 84141000 AIR COMPRESSOR FOR AIR FILLING (XLBM-60L) (TANK-60L,BLACK) CHINA Tughlakabad 70 0.1345 PCS 1920.0
2016-09-17 84141000 AIR COMPRESSOR FOR AIR FILLING (XLBM-60L) (TANK-60L,GREEN) CHINA Tughlakabad 70 0.1345 PCS 1920.0
2016-09-17 84144090 FOC, 49-23124-04 A P-15-TC-220 VAC AIR COMPRESSOR, PANTHER WR 1.1 AMP(IMPORTED FOR DEMONSTRATION PURPOSE AT EXHIBITION O UNITED STATES Banglore Air Cargo 1 0.0438 NOS 43753.0
2016-09-17 84148011 AIR CONDITIONING COMPRESSOR - F500BHCRA10(GSL) CHINA Chennai Sea 2320 14.6414 NOS 6310.0
2016-09-17 84148011 AIR CONDITIONING COMPRESSOR - F500HQFCA02(DSL) CHINA Chennai Sea 1440 9.0877 NOS 6310.0
2016-09-17 84148011 COMPRESSOR - AIR CONDITIONING LR051045 UNITED KINGDOM Nhava Sheva Sea 2 0.0839 PCS 41947.0
2016-09-17 84148011 SCROLL COMPRESSOR ANB87FV3MT FOR AIR-CONDITIONER THAILAND Bombay Air Cargo 4 0.1364 PCS 34094.0
2016-09-17 84148090 AIR RECEIVER (PARTS OF AIR COMPRESSOR) (FOR INDUSTRIAL FAN) SINGAPORE Tughlakabad 1 0.0469 UNT 46869.0
2016-09-17 84148090 INGERSOLL-RAND AIR COMPRESSOR (MODEL: 3000 E30/12 FF (FOR INDUSTRIAL FAN INDUSTRY) (W/O ODS GAS) SINGAPORE Tughlakabad 1 0.1582 UNT 158182.0
2016-09-17 84149011 MAIN SHAFT SEMI FINISH (P. NO.IAC81-40070) (AIR COMPRESSOR PART FOR AUTOMOTIVE AIR CONDITIONER) (FOR CAPTIVE CONSUMPTION VIETNAM, DEMOCRATIC REP. OF Patparganj 5000 0.4725 PCS 94.0
2016-09-17 84149019 IMPELLER NAVV-160/80-10 B=50',HOLE FI 90/25MM HUB-WELDED STEEL OUTSIDE DIAMETER FI 1595MM[2 PCS][PARTS OF AIR COMPRESSOR SLOVENIA Nhava Sheva Sea 660 0.5013 KGS 759.0
2016-09-17 84149090 B012905830003 COOLER B3925 (AIR COMPRESSOR PARTS) CHINA Chennai Air Cargo 1 0.0673 PCS 67320.0
2016-09-17 82079090 52303330 SPECIAL TOOL (FOR HITACHI AIR COMPRESSOR) JAPAN Delhi Air Cargo 1 0.0113 PCS 11347.0
2016-09-19 39269099 IAC13-40010 ORBITING TIP SEAL (PLASTIC PARTS FOR AIR COMPRESSOR) THAILAND Delhi Air Cargo 7200 0.1132 PCS 15.0
2016-09-19 39269099 IAC13-40020 FIXED TIP SEAL (PLASTIC PARTS FOR AIR COMPRESSOR) THAILAND Delhi Air Cargo 7200 0.1079 PCS 14.0
2016-09-19 39269099 IAC13-40030 FIXED TIP SEAL (PLASTIC PARTS FOR AIR COMPRESSOR) THAILAND Delhi Air Cargo 5400 0.0774 PCS 14.0
2016-09-19 39269099 IAC13-40040 ORBITING TIP SEAL (PLASTIC PARTS FOR AIR COMPRESSOR) THAILAND Delhi Air Cargo 5400 0.0809 PCS 14.0
2016-09-19 39173300 HOSE AIR INLET 1625599800 ARTICLES OF PLASTIC (COMPRESSOR SPARE PARTS) BELGIUM Nhava Sheva Sea 12 0.0286 NOS 2380.0
2016-09-19 84149090 SPARE PARTS OF AIR COMPRESSOR & SPRAY GUN CHINA Cochin Sea 1604 0.0415 UNT 25.0
2016-09-19 84158390 Compressor (PARTS OF AIR CONDITIONER) PART NO:0010758512 CHINA Chennai Sea 2 0.0402 PCS 20094.0
2016-09-19 84158390 Compressor (PARTS OF AIR CONDITIONER) PART NO:0150707061 CHINA Chennai Sea 2 0.0583 PCS 29127.0
2016-09-19 84158390 Compressor (PARTS OF AIR CONDITIONER) PART NO:A0010719332 CHINA Chennai Sea 9 0.0502 PCS 5573.0
2016-09-19 84159000 AIR CONDITIONER PARTS COMPRESSOR, ASSY JT160GA BY1 DAIKIN R50049028740 MALAYSIA Bombay Air Cargo 15 0.3413 NOS 22755.0
2016-09-19 84212900 FILTER AIR 1635040700 (COMPRESSOR SPARE PARTS) BELGIUM Nhava Sheva Sea 8 0.0374 NOS 4679.0
2016-09-19 84144030 SCREW AIR COMPRESSOR MODEL #LG22-8 FAD 3.6M3/MIN WORKING PRESSURE 8BAR MOTOR POWER 30HP (22KW) VOLTAGE415V/50HZ CHINA Chennai Sea 1 0.1817 SET 181734.0
2016-09-19 84144030 SCREW AIR COMPRESSOR MODEL LG 18-8 FAD 3M3/MIN WORKING PRESSURE 8BAR MOTOR POWER 25HP (18.5KW) VOLTAGE 415 V/50HZ CHINA Chennai Sea 1 0.1762 SET 176248.0
2016-09-19 84144090 AIR COMPRESSOR,HI CAPACITY ACGP-02, C/O-ITALY,LAB EQUIOPMENT R & D PURPOSE. UNITED STATES Kolkata Sea 1 0.067 NOS 67002.0
2016-09-19 84148011 COMPR & CL ASY A/C (COMPRESSOR AND CLUTCH ASSEMBLY AIR CONDITIONING) (EB3B19D629BB) THAILAND Chennai Sea 96 0.5814 PCS 6055.0
2016-09-19 84148011 COMPRESSOR WITH STANDARD ACCESSORIES FOR AIR CONDITIONER - PH310G2C-7KTS (1100108263) CHINA Waluj(Aurangabad) 192 0.6741 PCS 3510.0
2016-09-19 84148011 ROTARY COMPRESSOR FOR AIR CONDITIONER (PH280G2C-7FV) CHINA Pipavav(Victor) Port 1920 6.4338 SET 3350.0
2016-09-19 84148090 AIR COMPRESSOR BM 24 CHINA Cochin Sea 50 0.1323 UNT 2645.0
2016-09-19 84148090 AIR COMPRESSOR BM 50 CHINA Cochin Sea 20 0.0675 UNT 3375.0
2016-09-19 84149011 SHAFT ROTOR ASSEMBLY (IAC80-10050) : AIR COMPRESSOR PARTS FOR AUTOMOTIVE AIR CONDITIONER - FOR CAPTIVE CONSUMPTION VIETNAM, DEMOCRATIC REP. OF Patparganj 5400 1.2659 SET 234.0
2016-09-19 84149019 COLLECTOR AIR 1621142611 (COMPRESSOR SPARE PARTS) BELGIUM Nhava Sheva Sea 3 0.0801 NOS 26697.0
2016-09-19 84149090 AIR COMPRESSOR FOR CAR TYRE CHINA Bombay Sea 167 0.0282 DOZ 169.0
2016-09-19 84149090 B007700690023 B1929A COOLER (AIR COMPRESSOR PARTS ) CHINA Chennai Sea 2 0.016 PCS 7994.0
2016-09-19 84149090 B007705830009 COOLER B4823 (AIR COMPRESSOR PARTS) CHINA Chennai Sea 96 0.6705 PCS 6984.0
2016-09-19 84149090 B007805830005 COOLER B7685 (AIR COMPRESSOR PARTS) CHINA Chennai Sea 2 0.1151 PCS 57536.0
2016-09-19 84149090 B007805830010 COOLER B10197 (AIR COMPRESSOR PARTS) CHINA Chennai Sea 1 0.0057 PCS 5737.0
2016-09-19 84149090 B007805830011 COOLER B10198 (AIR COMPRESSOR PARTS) CHINA Chennai Sea 1 0.0068 PCS 6838.0
2016-09-19 84149090 B010905830009 COOLER B5420 (AIR COMPRESSOR PARTS) CHINA Chennai Sea 12 0.2762 PCS 23014.0
2016-09-19 84149090 B011900690007 B3781.2 COOLER (AIR COMPRESSOR PARTS ) CHINA Chennai Sea 1 0.0058 PCS 5795.0
2016-09-19 84149090 B011905830009 COOLER B2608 (AIR COMPRESSOR PARTS) CHINA Chennai Sea 2 0.2022 PCS 101113.0
2016-09-19 84149090 B011905830012 B3751.2 COOLER (AIR COMPRESSOR PARTS) CHINA Chennai Sea 2 0.0548 PCS 27402.0
2016-09-19 84149090 B012900690001 COOLER B3781 (AIR COMPRESSOR PARTS) CHINA Chennai Sea 45 0.8105 PCS 18010.0
2016-09-19 84149090 B012900690015 COOLER B5637 (AIR COMPRESSOR PARTS) CHINA Chennai Sea 16 0.6175 PCS 38593.0
2016-09-19 84149090 B012905830003 COOLER B3925 (AIR COMPRESSOR PARTS) CHINA Chennai Sea 4 0.2248 PCS 56212.0
2016-09-19 84149090 B012905830004 COOLER B7660 (AIR COMPRESSOR PARTS) CHINA Chennai Sea 4 0.291 PCS 72738.0

Air Compressor Trade Data - Indian Ports

S. No Product Product Code Quantity Value (INR in Million) Unit Origin Port Destination Port
AUTO A/C COMPRESSOR 5H09 (1000269797) (WITHOUT ODS GAS) (FORCAPTIVE CONSUMPTION) (FOR AIR CONDITIONING) 84148011 100 0.4217 PCS CHINA Delhi Air Cargo
COMPR & CL ASY A/C (COMPRESSOR AND CLUTCH ASSEMBLY AIR CONDITIONING) (EB3B19D629BB) 84148011 192 1.1682 PCS THAILAND Chennai Sea
COMPRESSOR ASSY (YL7 K10B) (T41660BA) (95200-76M01) FOR CAR AIR CONDITIONER (NET WT : 7918.08 KGS) 84148011 1920 6.2182 SET THAILAND Chennai Sea
COMPRESSOR SET, KOREA (TBZ35676401) (PARTS FOR COMMERCIAL AIR CONDITIONER)NOT FOR RETAIL SALE(BULK PACKING) 84148011 17 0.1667 NOS CHINA Dadri - STTPL (CFS)
COMPRESSOR WITH STANDARD ACCESSORIES FOR AIR CONDITIONER - PH290G2C-7KTL (1100103808) 84148011 3840 13.0304 PCS CHINA Waluj(Aurangabad)
ROTARY COMPRESSOR WITH STANDARD ACCESSORIES FOR AIR CONDITIONER BRAND: GMCC (HSF195S1VKT) NON-ODS 84148011 960 2.5819 PCS CHINA Patli ICD
SPARE PARTS FOR AIR CONDITIONER-COMPRESSOR-PART NO.-A0010701875 (QTY:1 PCS) (DO NOT CONTAIN ANY OZONE DEPLETING SUB 84148011 33 0.0198 KGS CHINA Nhava Sheva Sea
SPARE PARTS FOR AIR CONDITIONER-COMPRESSOR-PART NO.-A0010701875 (QTY:1 PCS) (DO NOT CONTAIN ANY OZONE DEPLETING SUB 84148011 24 0.093 PCS CHINA Nhava Sheva Sea
AIR/GAS PUMPS, COMPRESSORS (MODEL NO.CLA200d) 84148019 72 0.075 UNT GERMANY Nhava Sheva Sea
HIGHLY COMPRESSOR SG184UV-A7BT WITH ACCESSORIES (WITHOUT ODSGAS) (FOR MFG AIR-CONDITIONER) (CAPTIVE USE) 84148019 768 1.9753 SET CHINA Dadri-CGML
(AUTO PARTS FOR CAPTIVE USE) AIR COMPRESSOR (PART NO: 51794515) 84148090 1 0.0087 UNT ITALY Nhava Sheva Sea
320/08563 SD7H15 120PV8 24V WP DM OEM (8202) (AIR-CON COMPRESSOR 24V) (FOR EXCAVATOR & CAPTIVE USE) 84148090 30 0.2263 PCS JAPAN Nhava Sheva Sea
MAIN SHAFT SEMI FINISH (P. NO.IAC81-40070) (AIR COMPRESSOR PART FOR AUTOMOTIVE AIR CONDITIONER) (FOR CAPTIVE CONSUMPTION 84149011 5000 0.4708 PCS VIETNAM, DEMOCRATIC REP. OF Delhi Air Cargo
IMPELLER NAVV-K-140/80-8 B=50',HOLE FI 80/22MM HUB-WELDED STEEL OUTSIDE DIAMETER FI 1395MM[2PCS][PARTS OF AIR COMPRESSOR 84149019 530 0.4021 KGS SLOVENIA Nhava Sheva Sea
2101010148 ELBOW (AIR COMPRESSOR PARTS) 84149090 0 5.0E-4 KGS CHINA Nhava Sheva Sea
2101060027 NIPPLE 3/8 (AIR COMPRESSOR PARTS) 84149090 2 0.0024 KGS CHINA Nhava Sheva Sea
2101060249 NIPPLE 1/4 (AIR COMPRESSOR PARTS) 84149090 0 1.0E-4 KGS CHINA Nhava Sheva Sea
2101080140 ELBOW (90 DEGREE) (AIR COMPRESSOR PARTS) 84149090 2 6.0E-4 KGS CHINA Nhava Sheva Sea
2102020061 PLUG CRANKCASE OIL 1/2 PT E71 (AIR COMPRESSOR PARTS) 84149090 0 0.0 KGS CHINA Nhava Sheva Sea
2104010187 VALVE BALL 1/2"*10K(AIR COMPRESSOR PARTS) 84149090 2 0.0014 KGS CHINA Nhava Sheva Sea
2108070057 TERMINAL (AIR COMPRESSOR PARTS) 84149090 0 0.0 KGS CHINA Nhava Sheva Sea
2113010326 STRAP (AIR COMPRESSOR PARTS) 84149090 3 0.0149 KGS CHINA Nhava Sheva Sea
2501230960 BELT COVER (AIR COMPRESSOR PARTS) 84149090 4 0.0038 KGS CHINA Nhava Sheva Sea
2501231240 BELT COVER (AIR COMPRESSOR PARTS) 84149090 1 0.0085 KGS CHINA Nhava Sheva Sea
2501231340 BELT COVER (AIR COMPRESSOR PARTS) 84149090 1 0.0066 KGS CHINA Nhava Sheva Sea

Looking to import Air Compressor?

With end to end global trade solutions from Connect2India, we enable Indian SMEs to start and grow their business globally

There is a total of 58 countries India imports Air Compressor from. The dollar value of Air Compressor import in 2020-2021 (Apr-Nov) stood at 244.65 USD Million and 571.45 USD Million in 2018, which shows a growth of 5.79% from the previous year’s import value which was 540.17 USD Million in 2017. Year on year the import of Air Compressor in India fell by -12.91% during 2014 to 2018.

Preferred nations for indian Air Compressor buyers are China (95.24 USD Million), Rep. of Korea (37.43 USD Million), Japan (30.86 USD Million), Thailand (25.87 USD Million), USA (23.71 USD Million) . These 5 countries in total sold 213.11 USD Million value of Air Compressor to India which rounds up to 87.11% of the Air Compressor import into India.

The data provided on the page shows the top 10 countries from where India imports Air Compressor from. In the year 2020-2021 (Apr-Nov), India imported Air Compressor worth 244.65 USD Million as compared to 571.45 USD Million in the year 2018.

Country Value (USD Million) Share (%)
China 95.24 38.93
Rep. of Korea 37.43 15.3
Japan 30.86 12.61
Thailand 25.87 10.57
USA 23.71 9.69
Belgium 8.19 3.35
Germany 3.89 1.59
TAIWAN 2.74 1.12
Italy 2.6 1.06
Indonesia 2.43 0.99

Among the top importing countries, India imported the highest dollar worth of Air Compressor from China with shipments in 2020-2021 (Apr-Nov) valued at 95.24 USD Million which is greater than the previous year Air Compressor shipments from China into India. In second place was Rep. of Korea, from which India imported around 37.43 USD Million worth of Air Compressor. The top 10 countries shared 95.22% of the Air Compressor import to India.

From the Air Compressor importing nations of India, China, Hong Kong SAR recorded the fastest growth in their Air Compressor export to India with 8200.0% rise in the Air Compressor import to India.

Below is the list of all countries for Air Compressor import to India.

Country Value (USD Million) Share (%)
Netherlands 2.28 0.93
United Kingdom 1.48 0.6
France 1.45 0.59
Singapore 1.4 0.57
China, Hong Kong SAR 0.83 0.34
Malaysia 0.81 0.33
Viet Nam 0.81 0.33
Brazil 0.67 0.27
Austria 0.48 0.2
Mexico 0.42 0.17
United Arab Emirates 0.28 0.11
Spain 0.16 0.07
Poland 0.11 0.04
Sweden 0.11 0.04
Argentina 0.06 0.02
Switzerland 0.05 0.02
Turkey 0.05 0.02
Canada 0.04 0.02
Czech Rep. 0.04 0.02
Slovenia 0.04 0.02

Combinedly all the above countries exported 244.53 million dollar of Air Compressor to India.

Yearwise analysis of Air Compressor import to India

Year Value (USD Million)
2009 347.76
2010 542.39
2011 568.0
2012 574.41
2013 554.73
2014 656.19
2015 579.29
2016 507.87
2017 540.17
2018 571.45
2019 617.19
2020 244.65

Below is the detailed list of Air Compressor import to India with quantity, volume, price, origin port and the destination port.

Increase your Air Compressor imports with steady access to working capital with our import financing solutions at Connect2India.

Looking to import Air Compressor from genuine and best quality Indian suppliers?

Air Compressor import analysis - Monthwise

The data shows the top 20 countries from where India imported Air Compressor in November 2020.

  • India Imported Air Compressor worth 12.81 USD million from China in November 2020.
  • The total quantity of Air Compressor imported from China was 820890.
  • India imported Air Compressor worth of 11.34 USD million in November 2020 alone from Japan.
  • India has imported Air Compressor value worth 7.31 USD Million from Rep. of Korea in November 2020.
  • India imported a volume of 107860 metric tons of Air Compressor from Thailand in tNovember 2020 and was 4th in the list of countries India imported Air Compressor from.
  • A total of 1064910 quantity of Air Compressor was imported from the mentioned countries.
S.no. Country Qty Value(USD Million) Month year
China 820890 12.81 November 2020
Japan 9210 11.34 November 2020
Rep. of Korea 120670 7.31 November 2020
Thailand 107860 5.47 November 2020
Netherlands 6280 0.61 November 2020
USA 1200 0.58 November 2020
TAIWAN 890 0.49 November 2020
Belgium 30 0.47 November 2020
Germany 3500 0.44 November 2020
United Kingdom 350 0.39 November 2020
Italy 8480 0.28 November 2020
United Arab Emirates 0 0.24 November 2020
France 1390 0.2 November 2020
Viet Nam 6700 0.14 November 2020
Austria 1040 0.12 November 2020
Indonesia 1860 0.12 November 2020
Singapore 820 0.12 November 2020
Brazil 2400 0.1 November 2020
Malaysia 5900 0.1 November 2020
Argentina 0 0.06 November 2020

Graphical representation for Air Compressor import

Air Compressor - Recent import data

Air Compressor in India is imported from more than 58 countries.

In FY 2020-2021 (Apr-Nov), Around 95.24 USD Million of Air Compressor is imported to India from China. It is around 38.93% of the total import of Air Compressor.

How connect2india can help you import Air Compressor?

Connect2India can help you find Air Compressor suppliers / exporters in more than 100 countries, arrange import orders for Air Compressor, find the most effective market to import Air Compressor, help you out with procedures and formalities required to import Air Compressor in India and also assist you in Air Compressor shipment and logistics. Our trade experts are always available for any help regarding the import of Air Compressor and its products. If you want more information, please get in touch with our trade experts here

People Also Ask

From which countries does India import Air Compressor from?

India imports Air Compressor from China (95.24 USD Million), Rep. of Korea (37.43 USD Million), Japan (30.86 USD Million), Thailand (25.87 USD Million), USA (23.71 USD Million) .

Whom can I contact for more information on Air Compressor import to India?

You can submit your requirement on Connect2India and our representative will get in touch with you with more information about Air Compressor. Alternatively, you can call us @ +91-7876759999 or email us to info@connect2India.com

Which is the most popular Indian port for Air Compressor import?

Nhava Sheva Sea is the most popular port for Air Compressor import to India

What are the top three import shipments of Air Compressor traded to India?

Following are the top three import shipments of Air Compressor traded to India :

  • SPARE PARTS FOR AIR COMPRESSOR (1 CTN)
  • AIR FILTER 1613740800 (COMPRESSOR SPARE PARTS)
  • AIR FILTER ELEM 2914502900 (COMPRESSOR SPARE PARTS)